createdAt,value
2022-11-14T00:05:42.422Z,-0.19
2022-11-14T00:11:22.936Z,-0.36
2022-11-14T00:17:03.123Z,-0.26
2022-11-14T00:22:43.321Z,-0.45
2022-11-14T00:28:23.868Z,-0.26
2022-11-14T00:34:04.589Z,-0.36
2022-11-14T00:39:45.219Z,-0.26
2022-11-14T00:45:25.500Z,-0.32
2022-11-14T00:51:05.939Z,-0.33
2022-11-14T00:56:46.179Z,-0.30
2022-11-14T01:02:27.160Z,-0.28
2022-11-14T01:08:07.748Z,-0.31
2022-11-14T01:13:48.621Z,-0.40
2022-11-14T01:19:28.619Z,-0.48
2022-11-14T01:25:09.392Z,-0.43
2022-11-14T01:30:49.465Z,-0.51
2022-11-14T01:36:29.851Z,-0.62
2022-11-14T01:49:22.958Z,-0.57
2022-11-14T01:55:08.170Z,-0.61
2022-11-14T02:00:48.779Z,-0.64
2022-11-14T02:06:32.568Z,-0.66
2022-11-14T02:12:15.718Z,-0.69
2022-11-14T02:17:56.997Z,-0.75
2022-11-14T02:23:37.579Z,-0.85
2022-11-14T02:29:17.638Z,-0.71
2022-11-14T02:34:57.859Z,-0.94
2022-11-14T02:40:38.487Z,-0.77
2022-11-14T02:46:18.657Z,-0.76
2022-11-14T02:51:58.998Z,-0.77
2022-11-14T02:57:39.448Z,-0.78
2022-11-14T03:03:19.096Z,-0.78
2022-11-14T03:09:03.857Z,-1.00
2022-11-14T03:14:32.007Z,-1.03
2022-11-14T03:20:12.278Z,-0.81
2022-11-14T03:25:52.428Z,-0.85
2022-11-14T03:31:32.248Z,-0.82
2022-11-14T03:37:12.667Z,-0.83
2022-11-14T03:42:53.241Z,-0.89
2022-11-14T03:48:33.779Z,-0.84
2022-11-14T03:54:13.902Z,-0.82
2022-11-14T03:59:54.319Z,-0.86
2022-11-14T04:05:34.871Z,-0.90
2022-11-14T04:11:15.880Z,-0.95
2022-11-14T04:16:56.240Z,-1.05
2022-11-14T04:22:36.670Z,-1.19
2022-11-14T04:28:16.980Z,-1.32
2022-11-14T04:33:57.528Z,-1.40
2022-11-14T04:39:38.428Z,-1.47
2022-11-14T04:45:18.885Z,-1.55
2022-11-14T04:50:58.940Z,-1.63
2022-11-14T04:56:39.319Z,-1.73
2022-11-14T05:02:19.840Z,-1.74
2022-11-14T05:08:00.498Z,-1.85
2022-11-14T05:13:41.079Z,-1.97
2022-11-14T05:19:21.378Z,-1.93
2022-11-14T05:25:01.727Z,-1.93
2022-11-14T05:30:42.159Z,-1.96
2022-11-14T05:36:22.899Z,-1.93
2022-11-14T05:42:03.121Z,-1.92
2022-11-14T05:47:43.559Z,-1.91
2022-11-14T05:53:24.141Z,-1.90
2022-11-14T05:59:04.602Z,-1.79
2022-11-14T06:04:45.240Z,-1.98
2022-11-14T06:10:26.740Z,-1.82
2022-11-14T06:16:11.699Z,-1.74
2022-11-14T06:21:52.304Z,-1.36
2022-11-14T06:27:32.790Z,-0.98
2022-11-14T06:33:12.940Z,-0.85
2022-11-14T06:38:54.022Z,-0.99
2022-11-14T06:44:34.620Z,-0.81
2022-11-14T06:50:14.946Z,-0.37
2022-11-14T06:56:03.959Z,-0.32
2022-11-14T07:01:44.702Z,-0.28
2022-11-14T07:07:25.150Z,-0.25
2022-11-14T07:13:05.689Z,-0.14
2022-11-14T07:18:46.763Z,-0.17
2022-11-14T07:24:27.566Z,-0.19
2022-11-14T07:30:08.659Z,-0.16
2022-11-14T07:35:49.335Z,-0.23
2022-11-14T07:41:29.590Z,0.05
2022-11-14T07:47:10.078Z,0.18
2022-11-14T07:52:55.758Z,0.22
2022-11-14T07:58:37.860Z,0.26
2022-11-14T08:04:18.240Z,0.29
2022-11-14T08:09:58.618Z,0.41
2022-11-14T08:15:38.838Z,0.37
2022-11-14T08:21:19.278Z,0.53
2022-11-14T08:26:59.770Z,0.77
2022-11-14T08:32:40.600Z,0.50
2022-11-14T08:38:20.918Z,0.67
2022-11-14T08:44:01.359Z,0.64
2022-11-14T08:49:41.651Z,0.32
2022-11-14T08:55:22.159Z,0.33
2022-11-14T09:01:07.858Z,0.26
2022-11-14T09:06:48.596Z,0.13
2022-11-14T09:12:29.322Z,0.08
2022-11-14T09:18:10.981Z,0.23
2022-11-14T09:23:51.299Z,0.22
2022-11-14T09:29:31.819Z,0.17
2022-11-14T09:35:13.423Z,0.18
2022-11-14T09:41:06.058Z,0.24
2022-11-14T09:46:56.918Z,0.23
2022-11-14T09:53:11.171Z,0.23
2022-11-14T09:58:52.359Z,0.22
2022-11-14T10:04:59.349Z,0.23
2022-11-14T10:10:56.481Z,0.23
2022-11-14T10:17:10.566Z,0.33
2022-11-14T10:23:06.101Z,0.51
2022-11-14T10:28:55.319Z,0.50
2022-11-14T10:34:39.848Z,0.45
2022-11-14T10:40:25.140Z,0.34
2022-11-14T10:46:08.600Z,0.28
2022-11-14T10:51:52.451Z,0.20
2022-11-14T10:57:36.687Z,0.26
2022-11-14T11:03:16.820Z,0.30
2022-11-14T11:16:06.652Z,0.23
2022-11-14T11:21:53.181Z,0.06
2022-11-14T11:27:38.712Z,0.06
2022-11-14T11:33:21.745Z,0.18
2022-11-14T11:39:04.937Z,0.05
2022-11-14T11:44:50.479Z,0.23
2022-11-14T11:50:36.311Z,0.16
2022-11-14T11:56:24.000Z,0.11
2022-11-14T12:02:27.611Z,0.02
2022-11-14T12:08:21.067Z,-0.06
2022-11-14T12:14:32.512Z,0.16
2022-11-14T12:20:43.230Z,0.14
2022-11-14T12:26:39.711Z,0.05
2022-11-14T12:32:50.912Z,-0.08
2022-11-14T12:38:43.772Z,0.02
2022-11-14T12:44:46.274Z,-0.06
2022-11-14T12:50:45.526Z,0.03
2022-11-14T12:56:53.772Z,-0.03
2022-11-14T13:02:54.753Z,0.02
2022-11-14T13:09:12.012Z,0.00
2022-11-14T13:15:13.736Z,-0.11
2022-11-14T13:21:45.143Z,-0.18
2022-11-14T13:28:00.368Z,-0.12
2022-11-14T13:34:07.226Z,-0.01
2022-11-14T13:40:16.100Z,-0.14
2022-11-14T13:46:06.975Z,-0.19
2022-11-14T13:51:48.314Z,-0.17
2022-11-14T13:57:49.834Z,-0.15
2022-11-14T14:04:08.295Z,-0.01
2022-11-14T14:10:06.534Z,-0.17
2022-11-14T14:16:17.654Z,-0.14
2022-11-14T14:22:36.234Z,-0.04
2022-11-14T14:28:40.576Z,-0.11
2022-11-14T14:34:32.304Z,-0.30
2022-11-14T14:40:38.124Z,-0.13
2022-11-14T14:46:31.101Z,-0.38
2022-11-14T14:52:32.296Z,-0.32
2022-11-14T14:58:34.094Z,-0.45
2022-11-14T15:04:17.145Z,-0.43
2022-11-14T15:10:05.995Z,-0.61
2022-11-14T15:15:47.435Z,-0.62
2022-11-14T15:21:31.195Z,-0.50
2022-11-14T15:27:20.354Z,-0.54
2022-11-14T15:33:05.420Z,-0.57
2022-11-14T15:39:05.045Z,-0.41
2022-11-14T15:44:49.894Z,-0.35
2022-11-14T15:50:33.574Z,-0.48
2022-11-14T15:56:14.935Z,-0.42
2022-11-14T16:02:03.654Z,-0.56
2022-11-14T16:07:47.725Z,-0.60
2022-11-14T16:13:30.958Z,-0.79
2022-11-14T16:19:17.107Z,-0.91
2022-11-14T16:25:09.758Z,-0.81
2022-11-14T16:30:56.075Z,-0.87
2022-11-14T16:36:39.922Z,-0.93
2022-11-14T16:42:20.241Z,-1.08
2022-11-14T16:48:00.876Z,-1.29
2022-11-14T16:53:49.014Z,-1.20
2022-11-14T16:59:32.655Z,-1.42
2022-11-14T17:05:19.083Z,-1.35
2022-11-14T17:11:05.335Z,-1.53
2022-11-14T17:16:47.536Z,-1.61
2022-11-14T17:22:30.687Z,-1.50
2022-11-14T17:28:13.065Z,-1.73
2022-11-14T17:33:55.569Z,-1.75
2022-11-14T17:39:37.396Z,-1.76
2022-11-14T17:45:20.522Z,-1.89
2022-11-14T17:51:07.116Z,-1.97
2022-11-14T17:56:55.084Z,-2.02
2022-11-14T18:02:35.567Z,-2.12
2022-11-14T18:08:18.194Z,-2.18
2022-11-14T18:14:05.582Z,-2.18
2022-11-14T18:19:46.726Z,-2.24
2022-11-14T18:25:29.564Z,-2.19
2022-11-14T18:31:17.778Z,-2.34
2022-11-14T18:36:58.797Z,-2.39
2022-11-14T18:42:39.254Z,-2.43
2022-11-14T18:48:20.264Z,-2.33
2022-11-14T18:54:04.612Z,-2.32
2022-11-14T18:59:46.003Z,-2.18
2022-11-14T19:05:26.966Z,-2.24
2022-11-14T19:11:34.126Z,-2.17
2022-11-14T19:17:23.022Z,-2.15
2022-11-14T19:23:05.392Z,-2.11
2022-11-14T19:28:46.134Z,-2.00
2022-11-14T19:34:29.998Z,-2.07
2022-11-14T19:40:11.425Z,-2.14
2022-11-14T19:45:52.572Z,-1.93
2022-11-14T19:51:33.564Z,-2.05
2022-11-14T19:57:16.404Z,-2.03
2022-11-14T20:03:02.885Z,-2.24
2022-11-14T20:08:43.685Z,-2.22
2022-11-14T20:14:24.192Z,-2.27
2022-11-14T20:20:04.865Z,-2.41
2022-11-14T20:25:52.423Z,-2.42
2022-11-14T20:31:32.675Z,-2.53
2022-11-14T20:37:13.531Z,-2.48
2022-11-14T20:42:56.511Z,-2.56
2022-11-14T20:48:40.326Z,-2.62
2022-11-14T20:54:24.425Z,-2.51
2022-11-14T21:00:08.424Z,-2.47
2022-11-14T21:06:03.874Z,-2.59
2022-11-14T21:11:49.046Z,-2.42
2022-11-14T21:17:34.764Z,-2.62
2022-11-14T21:23:17.927Z,-2.45
2022-11-14T21:29:07.345Z,-2.63
2022-11-14T21:34:53.505Z,-2.57
2022-11-14T21:40:34.965Z,-2.69
2022-11-14T21:46:22.127Z,-2.68
2022-11-14T21:52:11.266Z,-2.70
2022-11-14T21:57:57.525Z,-2.76
2022-11-14T22:04:06.224Z,-2.63
2022-11-14T22:09:47.364Z,-2.72
2022-11-14T22:15:35.106Z,-2.83
2022-11-14T22:21:27.265Z,-2.61
2022-11-14T22:27:17.192Z,-2.83
2022-11-14T22:33:15.991Z,-2.63
2022-11-14T22:39:01.744Z,-2.85
2022-11-14T22:45:05.687Z,-2.83
2022-11-14T22:51:09.073Z,-2.86
2022-11-14T22:57:15.953Z,-2.92
2022-11-14T23:09:14.572Z,-2.93
2022-11-14T23:21:10.104Z,-2.99
2022-11-14T23:27:10.983Z,-2.87
2022-11-14T23:32:57.958Z,-3.01
2022-11-14T23:38:42.984Z,-3.12
2022-11-14T23:44:23.978Z,-3.07
2022-11-14T23:50:04.804Z,-3.20
2022-11-14T23:56:06.443Z,-3.11
